TimeEDT,TemperatureF,Dew PointF,Humidity,Sea Level PressureIn,VisibilityMPH,Wind Direction,Wind SpeedMPH,Gust SpeedMPH,PrecipitationIn,Events,Conditions,WindDirDegrees,DateUTC
12:10 AM,43.9,34.0,68,29.96,10.0,West,11.5,-,N/A,,Overcast,270,2014-03-20 04:10:00
12:30 AM,43.2,33.3,68,29.96,10.0,West,16.1,19.6,N/A,,Mostly Cloudy,280,2014-03-20 04:30:00
12:50 AM,43.0,32.9,68,29.96,10.0,West,13.8,18.4,N/A,,Mostly Cloudy,280,2014-03-20 04:50:00
1:10 AM,43.2,32.5,66,29.97,10.0,West,13.8,25.3,N/A,,Overcast,270,2014-03-20 05:10:00
1:30 AM,43.2,32.5,66,29.97,10.0,West,10.4,17.3,N/A,,Overcast,280,2014-03-20 05:30:00
1:50 AM,42.8,33.3,69,29.97,10.0,WNW,12.7,19.6,N/A,,Overcast,290,2014-03-20 05:50:00
2:10 AM,42.4,33.3,70,29.97,10.0,West,9.2,17.3,N/A,,Overcast,260,2014-03-20 06:10:00
2:30 AM,42.1,33.1,70,29.98,10.0,West,12.7,25.3,N/A,,Overcast,270,2014-03-20 06:30:00
2:50 AM,41.5,33.1,72,29.98,10.0,West,9.2,-,N/A,,Overcast,270,2014-03-20 06:50:00
3:10 AM,41.0,32.0,70,29.98,10.0,West,12.7,18.4,N/A,,Overcast,270,2014-03-20 07:10:00
3:30 AM,41.2,32.0,70,29.98,10.0,West,11.5,18.4,N/A,,Overcast,280,2014-03-20 07:30:00
3:50 AM,40.3,29.8,66,29.98,10.0,West,17.3,24.2,N/A,,Overcast,270,2014-03-20 07:50:00
4:10 AM,40.1,28.4,63,29.98,10.0,West,13.8,19.6,N/A,,Overcast,280,2014-03-20 08:10:00
4:30 AM,39.4,28.6,65,29.98,10.0,West,12.7,19.6,N/A,,Overcast,270,2014-03-20 08:30:00
4:50 AM,38.8,28.4,66,29.99,10.0,West,11.5,20.7,N/A,,Overcast,270,2014-03-20 08:50:00
5:10 AM,38.3,28.8,69,30.01,10.0,West,12.7,21.9,N/A,,Overcast,280,2014-03-20 09:10:00
5:30 AM,37.4,28.0,69,30.02,10.0,WNW,13.8,20.7,N/A,,Overcast,290,2014-03-20 09:30:00
5:50 AM,36.7,27.3,69,30.02,10.0,West,15.0,-,N/A,,Overcast,270,2014-03-20 09:50:00
6:10 AM,36.5,27.3,69,30.02,10.0,West,6.9,20.7,N/A,,Overcast,280,2014-03-20 10:10:00
6:30 AM,36.5,27.0,68,30.03,10.0,West,10.4,17.3,N/A,,Overcast,270,2014-03-20 10:30:00
6:50 AM,36.5,26.4,67,30.03,10.0,West,11.5,-,N/A,,Overcast,260,2014-03-20 10:50:00
7:10 AM,36.5,27.5,70,30.03,10.0,WSW,9.2,-,N/A,,Overcast,250,2014-03-20 11:10:00
7:30 AM,36.0,27.3,71,30.04,10.0,WSW,9.2,-,N/A,,Overcast,240,2014-03-20 11:30:00
7:50 AM,36.1,26.6,68,30.04,10.0,West,11.5,-,N/A,,Overcast,260,2014-03-20 11:50:00
8:10 AM,36.5,25.5,64,30.06,10.0,WSW,10.4,-,N/A,,Overcast,250,2014-03-20 12:10:00
8:30 AM,36.5,25.0,63,30.06,10.0,West,10.4,-,N/A,,Overcast,260,2014-03-20 12:30:00
8:50 AM,36.7,25.9,65,30.07,10.0,West,11.5,-,N/A,,Overcast,260,2014-03-20 12:50:00
9:10 AM,37.0,26.8,66,30.07,10.0,WSW,11.5,-,N/A,,Overcast,250,2014-03-20 13:10:00
9:30 AM,37.4,26.1,64,30.07,10.0,West,13.8,17.3,N/A,,Overcast,260,2014-03-20 13:30:00
9:50 AM,37.6,25.9,63,30.08,10.0,West,11.5,-,N/A,,Overcast,260,2014-03-20 13:50:00
10:10 AM,37.8,25.3,61,30.09,10.0,West,13.8,18.4,N/A,,Overcast,260,2014-03-20 14:10:00
10:30 AM,38.5,25.2,59,30.09,10.0,WSW,13.8,21.9,N/A,,Overcast,250,2014-03-20 14:30:00
10:50 AM,38.7,24.8,58,30.09,10.0,West,9.2,-,N/A,,Mostly Cloudy,260,2014-03-20 14:50:00
11:10 AM,39.7,25.5,57,30.09,10.0,West,15.0,-,N/A,,Scattered Clouds,260,2014-03-20 15:10:00
11:30 AM,41.4,26.8,56,30.09,10.0,WSW,13.8,18.4,N/A,,Scattered Clouds,250,2014-03-20 15:30:00
11:50 AM,41.0,26.8,57,30.09,10.0,West,15.0,-,N/A,,Scattered Clouds,270,2014-03-20 15:50:00
12:10 PM,42.1,26.4,54,30.08,10.0,WSW,16.1,-,N/A,,Scattered Clouds,250,2014-03-20 16:10:00
12:30 PM,44.4,27.3,51,30.08,10.0,WSW,12.7,18.4,N/A,,Scattered Clouds,250,2014-03-20 16:30:00
12:50 PM,45.3,27.5,50,30.07,10.0,West,11.5,20.7,N/A,,Scattered Clouds,260,2014-03-20 16:50:00
1:10 PM,46.0,27.3,48,30.07,10.0,West,18.4,23.0,N/A,,Scattered Clouds,270,2014-03-20 17:10:00
1:30 PM,47.1,27.0,46,30.06,10.0,WSW,15.0,21.9,N/A,,Scattered Clouds,250,2014-03-20 17:30:00
1:50 PM,47.5,26.1,43,30.06,10.0,West,16.1,19.6,N/A,,Scattered Clouds,280,2014-03-20 17:50:00
2:10 PM,47.1,25.9,44,30.05,10.0,West,16.1,23.0,N/A,,Scattered Clouds,280,2014-03-20 18:10:00
2:30 PM,48.4,25.9,42,30.04,10.0,West,13.8,24.2,N/A,,Scattered Clouds,270,2014-03-20 18:30:00
2:50 PM,49.1,25.5,40,30.03,10.0,West,12.7,23.0,N/A,,Mostly Cloudy,280,2014-03-20 18:50:00
3:10 PM,48.2,24.6,40,30.03,10.0,WNW,12.7,17.3,N/A,,Mostly Cloudy,290,2014-03-20 19:10:00
3:30 PM,50.4,25.7,38,30.03,10.0,West,18.4,25.3,N/A,,Mostly Cloudy,260,2014-03-20 19:30:00
3:50 PM,49.6,24.1,37,30.03,10.0,West,12.7,26.5,N/A,,Mostly Cloudy,270,2014-03-20 19:50:00
4:10 PM,49.6,23.9,37,30.02,10.0,WNW,11.5,17.3,N/A,,Scattered Clouds,300,2014-03-20 20:10:00
4:30 PM,50.7,24.4,36,30.02,10.0,West,17.3,21.9,N/A,,Mostly Cloudy,270,2014-03-20 20:30:00
4:50 PM,49.5,25.3,39,30.02,10.0,WSW,11.5,16.1,N/A,,Mostly Cloudy,250,2014-03-20 20:50:00
5:10 PM,50.0,25.0,38,30.02,10.0,West,12.7,19.6,N/A,,Scattered Clouds,270,2014-03-20 21:10:00
5:30 PM,49.5,24.3,37,30.02,10.0,West,13.8,25.3,N/A,,Mostly Cloudy,280,2014-03-20 21:30:00
5:50 PM,49.3,24.8,38,30.02,10.0,West,10.4,18.4,N/A,,Overcast,270,2014-03-20 21:50:00
6:10 PM,49.1,25.3,40,30.02,10.0,West,12.7,-,N/A,,Overcast,260,2014-03-20 22:10:00
6:30 PM,49.1,25.7,40,30.02,10.0,West,6.9,-,N/A,,Overcast,270,2014-03-20 22:30:00
6:50 PM,48.9,26.4,42,30.02,10.0,West,5.8,-,N/A,,Overcast,270,2014-03-20 22:50:00
7:10 PM,48.7,26.2,42,30.02,10.0,West,8.1,16.1,N/A,,Overcast,270,2014-03-20 23:10:00
7:30 PM,48.2,26.6,43,30.02,10.0,West,3.5,-,N/A,,Overcast,280,2014-03-20 23:30:00
7:50 PM,47.5,26.4,44,30.02,10.0,Calm,Calm,-,N/A,,Overcast,0,2014-03-20 23:50:00
8:10 PM,47.1,26.8,45,30.02,10.0,Calm,Calm,-,N/A,,Overcast,0,2014-03-21 00:10:00
8:30 PM,45.9,28.9,52,30.02,10.0,Calm,Calm,-,N/A,,Overcast,0,2014-03-21 00:30:00
8:50 PM,45.1,28.4,52,30.02,10.0,Calm,Calm,-,N/A,,Overcast,0,2014-03-21 00:50:00
9:10 PM,44.4,30.7,59,30.02,10.0,Calm,Calm,-,N/A,,Overcast,0,2014-03-21 01:10:00
9:30 PM,45.0,29.8,55,30.03,10.0,West,4.6,-,N/A,,Overcast,270,2014-03-21 01:30:00
9:50 PM,45.7,29.3,53,30.02,10.0,Calm,Calm,-,N/A,,Overcast,0,2014-03-21 01:50:00
10:10 PM,45.3,30.2,56,30.02,10.0,Calm,Calm,-,N/A,,Overcast,0,2014-03-21 02:10:00
10:30 PM,45.1,30.9,58,30.02,10.0,South,3.5,-,N/A,,Overcast,170,2014-03-21 02:30:00
10:50 PM,45.3,30.4,56,30.02,10.0,Calm,Calm,-,N/A,,Overcast,0,2014-03-21 02:50:00
11:10 PM,43.7,32.7,65,30.03,10.0,Calm,Calm,-,N/A,,Overcast,0,2014-03-21 03:10:00
11:30 PM,44.1,31.3,61,30.03,10.0,Calm,Calm,-,N/A,,Overcast,0,2014-03-21 03:30:00
11:50 PM,43.5,32.2,64,30.03,10.0,Calm,Calm,-,N/A,,Overcast,0,2014-03-21 03:50:00